Time;durP1;ratioP1;P1;durP2;ratioP2;P2;SDS_P1;SDS_P2;PMS_P1;PMS_P2;Temp;Humidity;BMP_temperature;BMP_pressure;BME280_temperature;BME280_humidity;BME280_pressure;Samples;Min_cycle;Max_cycle;Signal;HPM_P1;HPM_P2
2023/08/20 00:01:25;;;;;;;8.45;7.00;;;;;;;27.06;68.26;100523.16;4955074;29;20059;-76
2023/08/20 00:03:54;;;;;;;8.82;7.15;;;;;;;27.07;68.34;100515.78;4955087;29;20058;-76
2023/08/20 00:06:23;;;;;;;8.20;7.13;;;;;;;27.04;68.69;100511.56;4954535;29;20074;-76
2023/08/20 00:08:52;;;;;;;8.65;6.95;;;;;;;27.05;68.62;100507.78;4954061;29;20047;-77
2023/08/20 00:11:21;;;;;;;8.95;7.13;;;;;;;27.04;68.34;100513.44;4953887;29;20047;-75
2023/08/20 00:13:49;;;;;;;9.10;6.82;;;;;;;27.03;68.69;100509.00;4954095;29;20105;-76
2023/08/20 00:16:19;;;;;;;7.93;7.13;;;;;;;27.01;68.85;100517.34;4954229;29;20043;-75
2023/08/20 00:18:47;;;;;;;9.38;7.53;;;;;;;27.01;68.51;100511.03;4955589;28;20082;-73
2023/08/20 00:21:16;;;;;;;8.13;7.10;;;;;;;26.99;68.42;100507.66;4957657;29;20090;-75
2023/08/20 00:23:44;;;;;;;8.77;7.63;;;;;;;26.99;68.45;100507.66;4957822;29;20097;-76
2023/08/20 00:26:13;;;;;;;8.70;7.80;;;;;;;26.98;68.83;100515.00;4958547;29;20059;-76
2023/08/20 00:28:43;;;;;;;8.38;7.47;;;;;;;26.96;68.72;100510.78;4958131;29;20138;-76
2023/08/20 00:31:11;;;;;;;7.88;7.07;;;;;;;26.96;68.71;100508.91;4957894;29;20105;-76
2023/08/20 00:33:39;;;;;;;8.80;7.13;;;;;;;26.94;68.57;100504.66;4958061;29;20058;-77
2023/08/20 00:36:17;;;;;;;8.48;7.38;;;;;;;26.95;68.69;100507.19;4957726;29;20117;-75
2023/08/20 00:38:49;;;;;;;8.80;7.30;;;;;;;26.94;68.61;100505.50;4957569;29;20358;-74
2023/08/20 00:41:17;;;;;;;8.32;7.45;;;;;;;26.92;68.87;100501.25;4957761;29;20052;-75
2023/08/20 00:43:46;;;;;;;7.90;7.00;;;;;;;26.93;68.36;100502.97;4958401;29;20054;-75
2023/08/20 00:46:15;;;;;;;8.23;7.00;;;;;;;26.92;68.46;100495.75;4958091;29;20126;-76
2023/08/20 00:48:43;;;;;;;8.70;7.63;;;;;;;26.91;68.84;100502.28;4958390;29;20043;-76
2023/08/20 00:51:11;;;;;;;7.78;6.90;;;;;;;26.90;68.73;100495.97;4957511;29;20511;-76
2023/08/20 00:53:39;;;;;;;9.23;7.28;;;;;;;26.90;68.73;100509.66;4958258;29;20043;-75
2023/08/20 00:56:08;;;;;;;8.00;7.20;;;;;;;26.88;68.56;100506.25;4958581;29;20489;-77
2023/08/20 00:58:36;;;;;;;8.02;7.03;;;;;;;26.88;68.31;100505.41;4959163;29;20051;-77
2023/08/20 01:01:08;;;;;;;7.97;6.85;;;;;;;26.86;68.76;100507.50;4958433;29;20047;-77
2023/08/20 01:03:36;;;;;;;8.03;7.13;;;;;;;26.87;68.32;100509.19;4959408;29;20056;-77
2023/08/20 01:06:21;;;;;;;8.90;7.38;;;;;;;26.84;68.58;100510.44;4959209;29;20051;-76
2023/08/20 01:08:54;;;;;;;9.38;7.03;;;;;;;26.85;68.77;100514.88;4959340;29;20050;-75
2023/08/20 01:11:31;;;;;;;8.05;7.00;;;;;;;26.84;68.88;100518.66;4959775;29;20058;-77
2023/08/20 01:14:00;;;;;;;8.10;7.07;;;;;;;26.83;68.79;100508.75;4959674;29;20067;-77
2023/08/20 01:16:30;;;;;;;8.77;7.22;;;;;;;26.81;68.72;100517.13;4965699;29;20098;-77
2023/08/20 01:18:58;;;;;;;8.32;7.22;;;;;;;26.81;68.41;100513.53;4966282;29;20047;-77
2023/08/20 01:21:37;;;;;;;10.07;6.90;;;;;;;26.79;68.30;100513.72;4967798;29;20138;-77
2023/08/20 01:24:18;;;;;;;8.15;6.75;;;;;;;26.79;68.44;100511.00;4968041;29;20082;-77
2023/08/20 01:27:01;;;;;;;7.97;6.72;;;;;;;26.79;68.50;100512.88;4968396;29;20120;-77
2023/08/20 01:29:32;;;;;;;8.25;6.80;;;;;;;26.78;68.57;100519.41;4969328;28;20139;-77
2023/08/20 01:32:01;;;;;;;8.82;7.43;;;;;;;26.76;68.94;100519.59;4969663;29;20093;-77
2023/08/20 01:34:29;;;;;;;7.95;7.03;;;;;;;26.76;68.51;100519.59;4974806;29;20047;-77
2023/08/20 01:36:57;;;;;;;7.88;6.63;;;;;;;26.75;68.35;100512.44;4969490;29;20051;-77
2023/08/20 01:39:25;;;;;;;8.05;6.85;;;;;;;26.74;68.61;100516.22;4968805;29;20047;-77
2023/08/20 01:41:54;;;;;;;8.13;6.75;;;;;;;26.74;68.71;100516.22;4961184;29;20150;-77
2023/08/20 01:44:22;;;;;;;8.70;6.90;;;;;;;26.73;68.74;100510.91;4957416;29;20564;-77
2023/08/20 01:46:51;;;;;;;7.80;7.00;;;;;;;26.72;68.89;100512.78;4957589;29;20057;-77
2023/08/20 01:49:19;;;;;;;8.05;7.25;;;;;;;26.72;68.88;100517.41;4958045;29;20043;-77
2023/08/20 01:51:48;;;;;;;7.95;6.80;;;;;;;26.71;68.58;100518.47;4957981;29;20055;-77
2023/08/20 01:54:16;;;;;;;8.40;7.10;;;;;;;26.70;68.80;100520.34;4957049;29;20436;-77
2023/08/20 01:56:45;;;;;;;7.72;6.75;;;;;;;26.69;68.50;100518.66;4957286;29;20048;-76
2023/08/20 01:59:13;;;;;;;7.70;6.88;;;;;;;26.67;68.63;100515.25;4957026;29;20130;-77
2023/08/20 02:01:41;;;;;;;7.78;6.97;;;;;;;26.68;68.75;100524.31;4957674;29;20047;-78
2023/08/20 02:04:11;;;;;;;7.80;6.47;;;;;;;26.67;68.84;100526.22;4956698;29;20098;-78
2023/08/20 02:06:39;;;;;;;7.82;6.97;;;;;;;26.65;68.76;100522.81;4939663;29;20051;-78
2023/08/20 02:09:07;;;;;;;7.45;6.65;;;;;;;26.66;68.67;100516.31;4956765;29;20059;-78
2023/08/20 02:11:35;;;;;;;8.77;7.20;;;;;;;26.63;68.43;100513.09;4956900;29;20085;-78
2023/08/20 02:14:04;;;;;;;8.50;7.05;;;;;;;26.63;68.85;100513.94;4956417;29;20142;-78
2023/08/20 02:16:32;;;;;;;7.63;6.82;;;;;;;26.64;68.31;100510.19;4956781;29;20058;-77
2023/08/20 02:19:01;;;;;;;7.72;6.93;;;;;;;26.61;68.61;100505.06;4956932;29;20158;-77
2023/08/20 02:21:31;;;;;;;7.30;6.60;;;;;;;26.60;68.81;100503.38;4956898;29;20394;-77
2023/08/20 02:23:59;;;;;;;8.85;7.10;;;;;;;26.60;68.58;100506.13;4956652;29;20058;-78
2023/08/20 02:26:27;;;;;;;7.82;7.03;;;;;;;26.61;68.65;100504.22;4956442;29;20488;-78
2023/08/20 02:28:56;;;;;;;8.10;7.30;;;;;;;26.59;68.27;100509.03;4956560;29;20056;-77
2023/08/20 02:31:24;;;;;;;8.02;7.22;;;;;;;26.58;68.26;100510.94;4956667;29;20055;-76
2023/08/20 02:33:53;;;;;;;10.98;7.35;;;;;;;26.57;68.74;100503.78;4956460;29;20413;-77
2023/08/20 02:36:21;;;;;;;7.85;6.90;;;;;;;26.57;68.44;100513.88;4956110;29;20618;-76
2023/08/20 02:38:51;;;;;;;8.55;7.57;;;;;;;26.57;68.58;100508.41;4955901;29;20077;-77
2023/08/20 02:41:19;;;;;;;7.85;7.05;;;;;;;26.55;68.70;100505.84;4955771;28;20057;-76
2023/08/20 02:43:47;;;;;;;8.05;6.95;;;;;;;26.55;68.67;100510.47;4956294;29;20143;-76
2023/08/20 02:46:15;;;;;;;8.88;6.78;;;;;;;26.54;68.35;100509.63;4955948;29;20048;-77
2023/08/20 02:48:43;;;;;;;7.80;7.00;;;;;;;26.54;68.59;100517.84;4955529;29;20047;-77
2023/08/20 02:51:11;;;;;;;7.57;6.72;;;;;;;26.53;68.39;100518.84;4955796;29;20422;-76
2023/08/20 02:53:39;;;;;;;8.77;7.22;;;;;;;26.50;68.27;100519.22;4955724;29;20055;-77
2023/08/20 02:56:09;;;;;;;8.30;7.07;;;;;;;26.50;68.46;100513.75;4955852;29;20075;-76
2023/08/20 02:58:37;;;;;;;7.60;6.80;;;;;;;26.49;68.22;100506.59;4955732;29;20091;-77
2023/08/20 03:01:06;;;;;;;7.78;6.97;;;;;;;26.47;68.26;100505.94;4955984;29;20047;-77
2023/08/20 03:03:34;;;;;;;7.63;6.82;;;;;;;26.49;68.81;100517.53;4955969;29;20075;-77
2023/08/20 03:06:03;;;;;;;8.98;6.70;;;;;;;26.48;68.34;100513.13;4956052;29;20126;-77
2023/08/20 03:08:31;;;;;;;7.55;6.82;;;;;;;26.48;68.71;100513.13;4955735;29;20047;-77
2023/08/20 03:10:59;;;;;;;7.63;6.47;;;;;;;26.46;68.68;100509.72;4955699;29;20051;-77
2023/08/20 03:13:29;;;;;;;8.05;7.18;;;;;;;26.46;68.40;100512.47;4955811;29;20055;-78
2023/08/20 03:15:57;;;;;;;8.35;7.00;;;;;;;26.44;68.23;100512.66;4936815;29;20059;-77
2023/08/20 03:18:25;;;;;;;7.43;6.60;;;;;;;26.44;68.55;100515.38;4936371;29;20051;-77
2023/08/20 03:20:55;;;;;;;8.20;6.57;;;;;;;26.44;68.27;100515.38;4936617;29;20069;-77
2023/08/20 03:23:23;;;;;;;8.38;6.97;;;;;;;26.42;68.43;100514.69;4936068;29;20094;-76
2023/08/20 03:25:51;;;;;;;7.85;6.80;;;;;;;26.43;68.60;100521.88;4936374;29;20112;-77
2023/08/20 03:28:22;;;;;;;8.18;6.95;;;;;;;26.42;68.26;100519.31;4936451;29;20061;-77
2023/08/20 03:30:51;;;;;;;8.05;6.70;;;;;;;26.41;68.38;100514.91;4935772;29;20486;-76
2023/08/20 03:33:20;;;;;;;8.35;6.47;;;;;;;26.40;68.20;100513.19;4935374;29;20067;-75
2023/08/20 03:35:48;;;;;;;8.48;6.78;;;;;;;26.40;68.42;100519.53;4935548;29;20052;-77
2023/08/20 03:38:16;;;;;;;7.57;6.75;;;;;;;26.37;68.37;100519.91;4935369;29;20055;-76
2023/08/20 03:40:45;;;;;;;7.82;6.30;;;;;;;26.35;68.54;100521.97;4935548;29;20051;-77
2023/08/20 03:43:13;;;;;;;7.75;6.90;;;;;;;26.38;68.71;100526.22;4935618;29;20052;-77
2023/08/20 03:45:41;;;;;;;7.80;6.38;;;;;;;26.35;68.06;100521.09;4935725;29;20100;-76
2023/08/20 03:48:12;;;;;;;7.55;6.80;;;;;;;26.36;68.71;100522.81;4935184;29;20408;-77
2023/08/20 03:50:41;;;;;;;8.45;6.65;;;;;;;26.34;68.42;100527.59;4935294;29;20095;-77
2023/08/20 03:53:10;;;;;;;7.78;6.68;;;;;;;26.33;68.30;100529.47;4934880;29;20386;-78
2023/08/20 03:55:38;;;;;;;7.63;6.80;;;;;;;26.33;68.27;100534.09;4935278;29;20052;-77
2023/08/20 03:58:06;;;;;;;7.07;6.38;;;;;;;26.33;68.37;100531.34;4935138;29;20051;-76
2023/08/20 04:00:36;;;;;;;7.97;6.68;;;;;;;26.31;68.60;100530.72;4934985;29;20060;-77
2023/08/20 04:03:04;;;;;;;8.43;6.55;;;;;;;26.31;68.11;100536.19;4934781;29;20103;-77
2023/08/20 04:05:38;;;;;;;8.05;6.68;;;;;;;26.30;68.10;100543.53;4935625;29;20047;-77
2023/08/20 04:08:07;;;;;;;7.97;6.78;;;;;;;26.30;68.36;100546.25;4934853;29;20047;-75
2023/08/20 04:10:35;;;;;;;7.40;6.50;;;;;;;26.28;68.55;100537.41;4934902;29;20056;-76
2023/08/20 04:13:04;;;;;;;7.78;6.38;;;;;;;26.29;68.27;100538.25;4934813;29;20062;-76
2023/08/20 04:15:32;;;;;;;8.10;7.00;;;;;;;26.29;68.14;100549.19;4951277;29;20055;-77
2023/08/20 04:18:01;;;;;;;7.72;6.60;;;;;;;26.28;68.11;100547.50;4954524;29;20086;-77
2023/08/20 04:20:30;;;;;;;8.02;6.90;;;;;;;26.28;68.50;100552.97;4954318;29;20051;-77
2023/08/20 04:22:59;;;;;;;9.48;6.65;;;;;;;26.27;68.06;100545.81;4954204;29;20394;-77
2023/08/20 04:25:27;;;;;;;8.25;7.10;;;;;;;26.25;68.54;100549.56;4954023;29;20051;-77
2023/08/20 04:27:56;;;;;;;7.82;6.85;;;;;;;26.25;68.14;100555.03;4953453;29;20493;-76
2023/08/20 04:30:24;;;;;;;7.45;6.32;;;;;;;26.25;68.17;100560.50;4953633;29;20138;-77
2023/08/20 04:32:52;;;;;;;8.38;7.10;;;;;;;26.24;68.46;100558.78;4953550;29;20055;-77
2023/08/20 04:35:20;;;;;;;8.27;6.60;;;;;;;26.24;68.31;100563.41;4953773;29;20507;-75
2023/08/20 04:37:48;;;;;;;7.65;6.82;;;;;;;26.22;68.12;100558.13;4953447;29;20047;-77
2023/08/20 04:40:18;;;;;;;8.32;6.72;;;;;;;26.23;68.28;100556.25;4953507;29;20121;-77
2023/08/20 04:42:46;;;;;;;8.55;7.07;;;;;;;26.24;68.46;100566.13;4953243;29;20062;-77
2023/08/20 04:45:16;;;;;;;7.70;6.90;;;;;;;26.23;68.49;100558.97;4953554;29;20052;-77
2023/08/20 04:47:44;;;;;;;7.47;6.13;;;;;;;26.19;68.43;100558.50;4953270;29;20564;-77
2023/08/20 04:50:13;;;;;;;7.80;6.50;;;;;;;26.22;68.12;100566.34;4953695;29;20138;-77
2023/08/20 04:52:41;;;;;;;7.40;6.45;;;;;;;26.21;68.40;100570.09;4953616;29;20054;-74
2023/08/20 04:55:09;;;;;;;7.68;6.75;;;;;;;26.21;67.99;100567.38;4953174;29;20059;-75
2023/08/20 04:57:39;;;;;;;7.68;6.88;;;;;;;26.21;67.98;100569.25;4953097;29;20047;-77
2023/08/20 05:00:09;;;;;;;8.70;6.88;;;;;;;26.22;68.05;100569.06;4953613;29;20087;-76
2023/08/20 05:02:37;;;;;;;8.60;6.28;;;;;;;26.18;67.96;100564.16;4953873;29;20043;-77
2023/08/20 05:05:07;;;;;;;7.82;6.28;;;;;;;26.20;68.01;100562.94;4954638;28;20110;-77
2023/08/20 05:07:35;;;;;;;8.98;6.70;;;;;;;26.19;68.14;100565.88;4957305;29;20047;-78
2023/08/20 05:10:04;;;;;;;7.22;6.53;;;;;;;26.18;67.98;100567.75;4957370;29;20059;-78
2023/08/20 05:12:32;;;;;;;8.30;6.43;;;;;;;26.19;68.35;100572.19;4956943;29;20079;-76
2023/08/20 05:15:02;;;;;;;8.55;6.88;;;;;;;26.18;68.42;100570.50;4956712;29;20604;-76
2023/08/20 05:17:30;;;;;;;7.88;6.80;;;;;;;26.16;68.43;100575.28;4957131;29;20094;-76
2023/08/20 05:19:58;;;;;;;7.57;6.78;;;;;;;26.18;68.51;100578.69;4957088;29;20107;-76
2023/08/20 05:22:26;;;;;;;8.00;6.70;;;;;;;26.19;68.09;100579.53;4956594;29;20043;-76
2023/08/20 05:24:54;;;;;;;7.68;6.70;;;;;;;26.18;68.13;100580.56;4956811;29;20050;-76
2023/08/20 05:27:23;;;;;;;8.45;7.13;;;;;;;26.18;68.14;100578.69;4956831;29;20078;-76
2023/08/20 05:29:51;;;;;;;8.18;6.80;;;;;;;26.18;68.47;100580.56;4956481;29;20057;-76
2023/08/20 05:32:20;;;;;;;8.80;7.57;;;;;;;26.18;68.21;100575.09;4956359;29;20051;-75
2023/08/20 05:34:51;;;;;;;8.43;6.82;;;;;;;26.17;68.59;100585.19;4956289;29;20404;-76
2023/08/20 05:37:22;;;;;;;7.75;6.82;;;;;;;26.16;68.56;100572.56;4956771;29;20051;-76
2023/08/20 05:39:50;;;;;;;8.82;7.30;;;;;;;26.17;68.47;100579.72;4956236;29;20524;-76
2023/08/20 05:42:18;;;;;;;9.38;7.35;;;;;;;26.17;68.27;100579.72;4956677;29;20055;-76
2023/08/20 05:44:47;;;;;;;8.23;6.93;;;;;;;26.16;68.36;100574.44;4956600;29;20044;-75
2023/08/20 05:47:15;;;;;;;8.48;7.43;;;;;;;26.17;68.66;100581.63;4956061;29;20107;-76
2023/08/20 05:49:44;;;;;;;7.97;7.05;;;;;;;26.17;68.50;100578.88;4956018;29;20523;-76
2023/08/20 05:52:12;;;;;;;8.23;7.22;;;;;;;26.16;68.78;100583.50;4954287;29;20053;-75
2023/08/20 05:54:41;;;;;;;9.98;7.03;;;;;;;26.16;68.50;100579.91;4936924;29;20094;-75
2023/08/20 05:57:09;;;;;;;7.75;6.78;;;;;;;26.17;68.71;100584.34;4936771;29;20130;-76
2023/08/20 05:59:37;;;;;;;7.85;7.05;;;;;;;26.17;68.66;100587.94;4936779;29;20469;-75
2023/08/20 06:02:05;;;;;;;7.70;6.88;;;;;;;26.15;68.63;100587.28;4936682;29;20044;-76
2023/08/20 06:04:33;;;;;;;7.63;6.82;;;;;;;26.17;68.36;100595.28;4936791;29;20048;-76
2023/08/20 06:07:03;;;;;;;7.78;6.97;;;;;;;26.17;68.43;100595.28;4936740;29;20044;-75
2023/08/20 06:09:31;;;;;;;7.72;6.93;;;;;;;26.16;68.14;100588.13;4936452;29;20147;-74
2023/08/20 06:11:59;;;;;;;9.27;7.03;;;;;;;26.17;68.56;100590.66;4936427;29;20047;-74
2023/08/20 06:14:27;;;;;;;7.75;6.63;;;;;;;26.17;68.13;100590.66;4936075;29;20079;-74
2023/08/20 06:16:56;;;;;;;8.45;7.05;;;;;;;26.18;68.69;100592.34;4936122;29;20055;-75
2023/08/20 06:19:24;;;;;;;7.93;6.90;;;;;;;26.17;68.17;100589.81;4936503;29;20157;-75
2023/08/20 06:21:52;;;;;;;9.52;7.57;;;;;;;26.19;68.58;100599.53;4936440;29;20110;-76
2023/08/20 06:24:22;;;;;;;8.70;7.03;;;;;;;26.19;68.23;100604.13;4936477;29;20076;-75
2023/08/20 06:26:50;;;;;;;7.60;6.72;;;;;;;26.18;68.41;100603.28;4936768;29;20056;-77
2023/08/20 06:29:18;;;;;;;7.57;6.75;;;;;;;26.18;68.54;100602.44;4936513;29;20453;-75
2023/08/20 06:31:46;;;;;;;8.90;6.63;;;;;;;26.18;68.53;100597.81;4936667;29;20051;-76
2023/08/20 06:34:15;;;;;;;7.30;6.57;;;;;;;26.18;68.21;100602.44;4936844;29;20426;-75
2023/08/20 06:36:43;;;;;;;7.60;6.53;;;;;;;26.19;68.39;100598.66;4936377;29;20518;-75
2023/08/20 06:39:12;;;;;;;8.02;7.03;;;;;;;26.20;68.56;100612.16;4936470;29;20052;-74
2023/08/20 06:41:42;;;;;;;7.05;6.35;;;;;;;26.19;68.26;100602.25;4936209;29;20044;-76
2023/08/20 06:44:10;;;;;;;7.43;6.63;;;;;;;26.20;68.15;100601.22;4935996;29;20417;-75
2023/08/20 06:46:38;;;;;;;8.25;7.00;;;;;;;26.19;68.60;100602.25;4936158;29;20095;-75
2023/08/20 06:49:06;;;;;;;8.07;6.88;;;;;;;26.20;68.50;100606.69;4936873;29;20075;-76
2023/08/20 06:51:35;;;;;;;7.32;6.60;;;;;;;26.21;68.17;100602.91;4936287;29;20051;-76
2023/08/20 06:54:05;;;;;;;8.05;6.80;;;;;;;26.20;68.66;100601.22;4936493;29;20494;-76
2023/08/20 06:56:34;;;;;;;7.45;6.55;;;;;;;26.21;68.68;100597.44;4936566;29;20055;-77
2023/08/20 06:59:04;;;;;;;7.95;6.43;;;;;;;26.22;68.46;100596.41;4936693;29;20043;-77
2023/08/20 07:01:32;;;;;;;8.13;6.95;;;;;;;26.21;68.45;100602.91;4936888;29;20716;-77
2023/08/20 07:04:00;;;;;;;7.50;6.63;;;;;;;26.23;68.18;100600.84;4937029;29;20052;-77
2023/08/20 07:06:31;;;;;;;7.25;6.15;;;;;;;26.23;68.71;100609.03;4936817;29;20079;-76
2023/08/20 07:08:59;;;;;;;7.50;6.70;;;;;;;26.22;68.37;100604.59;4936307;29;20047;-76
2023/08/20 07:11:27;;;;;;;8.55;6.65;;;;;;;26.23;68.24;100602.72;4936546;29;20047;-77
2023/08/20 07:13:55;;;;;;;7.80;6.68;;;;;;;26.24;68.54;100607.16;4936117;29;20394;-76
2023/08/20 07:16:25;;;;;;;9.32;6.97;;;;;;;26.22;68.38;100599.13;4935995;29;20059;-76
2023/08/20 07:18:53;;;;;;;6.82;6.05;;;;;;;26.24;68.32;100608.00;4935818;29;20051;-76
2023/08/20 07:21:21;;;;;;;7.90;6.75;;;;;;;26.25;68.77;100604.25;4936144;29;20599;-76
2023/08/20 07:23:49;;;;;;;6.93;6.03;;;;;;;26.25;68.70;100609.72;4935750;29;20047;-76
2023/08/20 07:26:17;;;;;;;8.57;6.70;;;;;;;26.27;68.64;100605.97;4936262;29;20044;-76
2023/08/20 07:28:57;;;;;;;7.28;6.45;;;;;;;26.27;68.26;100603.22;4944824;29;20043;-76
2023/08/20 07:31:28;;;;;;;7.15;6.18;;;;;;;26.26;68.36;100605.09;4954857;29;20043;-76
2023/08/20 07:33:57;;;;;;;7.45;6.57;;;;;;;26.27;68.67;100606.81;4954744;29;20059;-76
2023/08/20 07:36:32;;;;;;;7.00;6.30;;;;;;;26.27;68.16;100600.47;4955355;29;20063;-76
2023/08/20 07:39:01;;;;;;;7.63;6.32;;;;;;;26.28;68.57;100607.66;4955143;29;20138;-76
2023/08/20 07:41:30;;;;;;;7.35;6.53;;;;;;;26.28;68.54;100608.50;4954752;29;20074;-76
2023/08/20 07:43:58;;;;;;;8.18;6.60;;;;;;;26.27;68.28;100600.47;4954984;29;20512;-76
2023/08/20 07:46:28;;;;;;;7.07;6.32;;;;;;;26.30;68.77;100605.56;4955398;29;20480;-76
2023/08/20 07:48:56;;;;;;;7.93;6.60;;;;;;;26.30;68.43;100600.09;4955332;29;20599;-76
2023/08/20 07:51:24;;;;;;;7.00;6.20;;;;;;;26.31;68.84;100605.38;4955654;29;20090;-76
2023/08/20 07:53:52;;;;;;;7.63;6.70;;;;;;;26.33;68.89;100611.50;4955149;29;20390;-76
2023/08/20 07:56:21;;;;;;;9.60;6.75;;;;;;;26.32;69.03;100603.50;4955144;29;20051;-76
2023/08/20 07:58:49;;;;;;;8.15;6.35;;;;;;;26.33;68.56;100605.19;4955344;29;20114;-76
2023/08/20 08:01:17;;;;;;;7.15;6.20;;;;;;;26.33;68.71;100605.19;4955168;29;20135;-76
2023/08/20 08:03:47;;;;;;;6.85;6.15;;;;;;;26.35;68.79;100609.47;4954681;29;20106;-77
2023/08/20 08:06:17;;;;;;;7.22;6.53;;;;;;;26.36;68.54;100604.84;4955061;29;20048;-77
2023/08/20 08:08:48;;;;;;;7.22;6.20;;;;;;;26.36;68.45;100604.84;4954774;29;20098;-76
2023/08/20 08:11:16;;;;;;;7.45;6.75;;;;;;;26.37;68.45;100607.41;4953963;29;20523;-75
2023/08/20 08:13:44;;;;;;;6.97;6.20;;;;;;;26.37;68.86;100601.94;4953681;29;20058;-76
2023/08/20 08:16:12;;;;;;;7.18;6.38;;;;;;;26.38;68.49;100609.13;4954273;29;20115;-75
2023/08/20 08:18:40;;;;;;;7.63;6.15;;;;;;;26.40;68.72;100611.66;4954789;29;20086;-77
2023/08/20 08:21:10;;;;;;;7.70;6.47;;;;;;;26.41;68.90;100607.88;4954366;29;20513;-76
2023/08/20 08:23:38;;;;;;;7.18;6.40;;;;;;;26.42;68.88;100615.91;4953857;29;20138;-77
2023/08/20 08:26:06;;;;;;;7.20;6.50;;;;;;;26.43;69.10;100611.28;4954794;29;20416;-77
2023/08/20 08:28:35;;;;;;;7.30;6.50;;;;;;;26.43;69.08;100608.53;4954089;29;20047;-75
2023/08/20 08:31:03;;;;;;;8.18;6.70;;;;;;;26.45;68.57;100615.53;4953917;29;20055;-74
2023/08/20 08:33:35;;;;;;;7.07;6.35;;;;;;;26.45;68.57;100610.06;4954228;29;20043;-78
2023/08/20 08:36:03;;;;;;;7.10;6.40;;;;;;;26.47;69.05;100608.00;4954706;29;20473;-76
2023/08/20 08:38:32;;;;;;;7.85;6.53;;;;;;;26.47;68.62;100602.53;4954201;28;20050;-76
2023/08/20 08:41:08;;;;;;;6.97;6.28;;;;;;;26.48;69.05;100609.69;4958280;29;20058;-76
2023/08/20 08:43:37;;;;;;;6.80;6.10;;;;;;;26.50;69.02;100612.22;4958605;29;20382;-76
2023/08/20 08:46:07;;;;;;;7.15;6.45;;;;;;;26.52;68.53;100612.88;4957559;29;20051;-78
2023/08/20 08:48:41;;;;;;;7.60;6.60;;;;;;;26.51;68.92;100612.03;4940536;29;20556;-78
2023/08/20 08:51:12;;;;;;;6.82;6.03;;;;;;;26.54;69.08;100613.56;4958028;29;20070;-76
2023/08/20 08:53:43;;;;;;;6.80;6.10;;;;;;;26.55;68.85;100615.28;4958737;29;20405;-77
2023/08/20 08:56:12;;;;;;;7.78;6.75;;;;;;;26.56;69.26;100611.50;4959421;29;20055;-78
2023/08/20 08:58:40;;;;;;;8.05;6.55;;;;;;;26.57;68.90;100610.47;4954342;29;20043;-78
2023/08/20 09:01:08;;;;;;;8.27;6.53;;;;;;;26.59;69.01;100615.72;4959439;29;20043;-77
2023/08/20 09:03:38;;;;;;;8.00;6.30;;;;;;;26.59;69.18;100608.38;4957762;29;20082;-77
2023/08/20 09:06:10;;;;;;;7.38;6.50;;;;;;;26.62;69.40;100615.34;4958239;29;20051;-77
2023/08/20 09:08:38;;;;;;;7.43;6.60;;;;;;;26.62;68.86;100618.94;4958243;29;20050;-76
2023/08/20 09:11:07;;;;;;;7.53;6.63;;;;;;;26.62;69.35;100623.56;4957682;29;20098;-78
2023/08/20 09:13:37;;;;;;;7.68;6.88;;;;;;;26.65;68.75;100621.31;4957585;29;20073;-77
2023/08/20 09:16:06;;;;;;;7.78;6.50;;;;;;;26.67;68.84;100618.38;4949701;29;20056;-78
2023/08/20 09:18:39;;;;;;;7.05;6.35;;;;;;;26.67;69.13;100616.50;4957190;29;20469;-77
2023/08/20 09:21:09;;;;;;;7.53;6.72;;;;;;;26.69;69.06;100619.88;4953988;29;20158;-78
2023/08/20 09:23:38;;;;;;;8.10;6.30;;;;;;;26.69;68.73;100619.88;4936485;29;20139;-77
2023/08/20 09:26:09;;;;;;;6.78;6.05;;;;;;;26.71;69.06;100620.53;4937937;29;20047;-77
2023/08/20 09:28:42;;;;;;;8.07;6.55;;;;;;;26.73;68.75;100623.97;4940278;29;20040;-77
2023/08/20 09:31:11;;;;;;;7.30;6.57;;;;;;;26.73;69.18;100615.75;4937534;29;20055;-75
2023/08/20 09:33:49;;;;;;;7.18;5.95;;;;;;;26.75;69.08;100621.88;4937301;29;20103;-75
2023/08/20 09:36:18;;;;;;;8.65;6.80;;;;;;;26.76;68.91;100612.63;4937051;29;20087;-75
2023/08/20 09:38:46;;;;;;;7.68;6.85;;;;;;;26.79;68.92;100614.97;4937124;29;20055;-75
2023/08/20 09:41:19;;;;;;;7.13;6.00;;;;;;;26.81;68.96;100612.06;4936986;29;20052;-75
2023/08/20 09:43:49;;;;;;;7.80;6.60;;;;;;;26.82;68.97;100611.84;4937113;29;20055;-75
2023/08/20 09:46:19;;;;;;;8.20;6.50;;;;;;;26.84;69.36;100611.69;4937245;29;20051;-73
2023/08/20 09:48:51;;;;;;;7.88;6.40;;;;;;;26.86;68.92;100606.88;4937079;29;20083;-77
2023/08/20 09:51:25;;;;;;;7.40;6.55;;;;;;;26.88;68.96;100614.88;4936956;29;20486;-77
2023/08/20 09:54:01;;;;;;;7.38;6.63;;;;;;;26.90;69.45;100607.34;4937718;29;20107;-73
2023/08/20 09:56:31;;;;;;;10.30;9.07;;;;;;;26.90;69.69;100608.19;4936954;29;20059;-74
2023/08/20 09:59:01;;;;;;;10.68;9.57;;;;;;;26.95;70.76;100602.16;4937537;29;20062;-77
2023/08/20 11:16:10;;;;;;;12.50;8.70;;;;;;;28.07;75.44;100569.69;4911831;29;20778;-76
2023/08/20 11:18:39;;;;;;;10.75;8.40;;;;;;;28.09;75.24;100562.97;4934397;29;20436;-76
2023/08/20 11:21:08;;;;;;;11.50;8.65;;;;;;;28.13;75.15;100564.25;4935820;29;20047;-78
2023/08/20 11:23:39;;;;;;;9.55;8.25;;;;;;;28.16;74.55;100561.09;4935865;29;20659;-78
2023/08/20 11:26:09;;;;;;;9.43;7.88;;;;;;;28.21;74.49;100560.53;4936102;29;20059;-77
2023/08/20 11:28:37;;;;;;;9.82;7.65;;;;;;;28.27;74.67;100567.09;4920328;29;20047;-77
2023/08/20 11:31:06;;;;;;;10.00;8.63;;;;;;;28.31;74.48;100563.78;4934113;29;20509;-73
2023/08/20 11:33:37;;;;;;;10.00;7.72;;;;;;;28.35;74.23;100559.59;4931504;29;20051;-78
2023/08/20 11:36:06;;;;;;;11.63;8.38;;;;;;;28.39;73.99;100560.91;4934519;29;20502;-76
2023/08/20 11:38:38;;;;;;;10.13;8.02;;;;;;;28.43;73.77;100562.19;4933620;29;20497;-76
2023/08/20 11:41:10;;;;;;;9.95;7.97;;;;;;;28.46;74.18;100553.53;4933865;29;20051;-77
2023/08/20 11:43:39;;;;;;;10.38;7.82;;;;;;;28.50;73.62;100543.88;4935009;29;20063;-76
2023/08/20 11:46:14;;;;;;;14.68;8.65;;;;;;;28.54;73.79;100548.94;4935475;29;20478;-78
2023/08/20 11:49:04;;;;;;;13.88;8.27;;;;;;;28.57;73.76;100540.31;4935333;29;20540;-77
2023/08/20 11:51:39;;;;;;;11.10;7.75;;;;;;;28.60;73.56;100539.91;4899671;29;20056;-78
2023/08/20 11:54:12;;;;;;;15.07;9.40;;;;;;;28.62;74.32;100533.16;4928622;29;20397;-77
2023/08/20 11:56:46;;;;;;;19.95;8.63;;;;;;;28.66;74.52;100533.59;4918436;29;20244;-77
2023/08/20 11:59:20;;;;;;;13.45;8.50;;;;;;;28.71;74.24;100540.19;4935026;29;20043;-77
2023/08/20 12:01:56;;;;;;;16.13;8.90;;;;;;;28.77;74.20;100536.63;4934453;29;20043;-76
2023/08/20 12:04:27;;;;;;;14.07;8.40;;;;;;;28.82;73.84;100541.50;4932177;29;20048;-77
2023/08/20 12:07:04;;;;;;;12.80;8.68;;;;;;;28.86;73.64;100534.56;4933986;29;20134;-75
2023/08/20 12:09:34;;;;;;;11.32;8.15;;;;;;;28.92;73.30;100539.25;4933102;29;20464;-76
2023/08/20 12:12:03;;;;;;;12.65;7.90;;;;;;;28.96;73.07;100537.81;4914787;29;20059;-77
2023/08/20 12:14:31;;;;;;;13.30;8.23;;;;;;;29.01;73.17;100529.78;4933565;29;20142;-76
2023/08/20 12:17:00;;;;;;;15.00;8.35;;;;;;;29.06;72.96;100524.53;4931935;29;20052;-76
2023/08/20 12:19:30;;;;;;;13.68;8.60;;;;;;;29.11;72.73;100534.88;4934907;29;20469;-71
2023/08/20 12:22:02;;;;;;;13.95;8.57;;;;;;;29.14;72.38;100526.22;4934576;29;20107;-76
2023/08/20 12:24:33;;;;;;;11.88;8.35;;;;;;;29.19;72.17;100526.47;4934747;29;20067;-79
2023/08/20 12:27:02;;;;;;;10.50;7.57;;;;;;;29.24;72.14;100525.81;4934535;29;20051;-76
2023/08/20 12:29:30;;;;;;;10.30;8.07;;;;;;;29.28;71.79;100521.63;4934925;29;20135;-77
2023/08/20 12:31:58;;;;;;;8.77;7.28;;;;;;;29.33;71.59;100524.59;4932947;29;20052;-78
2023/08/20 12:34:31;;;;;;;12.40;7.93;;;;;;;29.38;71.40;100526.72;4914108;29;20202;-75
2023/08/20 12:36:59;;;;;;;9.52;7.53;;;;;;;29.42;71.23;100527.97;4913394;29;20453;-76
2023/08/20 12:39:27;;;;;;;9.20;8.02;;;;;;;29.47;71.09;100523.56;4914878;29;20506;-77
2023/08/20 12:41:56;;;;;;;9.77;7.20;;;;;;;29.51;70.64;100524.03;4915071;29;20056;-78
2023/08/20 12:44:26;;;;;;;9.50;7.03;;;;;;;29.54;70.67;100521.72;4913572;29;20110;-78
2023/08/20 12:46:57;;;;;;;8.77;7.30;;;;;;;29.59;70.59;100518.31;4915466;29;20052;-77
2023/08/20 12:49:28;;;;;;;9.20;7.18;;;;;;;29.63;70.70;100517.72;4915037;29;20481;-78